Time;durP1;ratioP1;P1;durP2;ratioP2;P2;SDS_P1;SDS_P2;PMS_P1;PMS_P2;Temp;Humidity;BMP_temperature;BMP_pressure;BME280_temperature;BME280_humidity;BME280_pressure;Samples;Min_cycle;Max_cycle;Signal;HPM_P1;HPM_P2
2022/09/18 06:41:35;;;;;;;13.90;12.50;;;23.30;99.90;;;;;;5117172;23;20058;-83
2022/09/18 06:44:05;;;;;;;13.40;12.48;;;23.70;99.90;;;;;;4979824;28;20034;-84
2022/09/18 06:46:36;;;;;;;13.55;12.40;;;24.00;99.90;;;;;;4983630;28;20030;-84
2022/09/18 06:49:16;;;;;;;13.48;12.05;;;23.70;99.90;;;;;;4983787;28;20033;-85
2022/09/18 06:51:47;;;;;;;13.18;11.90;;;23.60;99.90;;;;;;4981264;28;20495;-84
2022/09/18 06:54:16;;;;;;;13.10;12.15;;;23.80;99.90;;;;;;4966838;28;20034;-82
2022/09/18 06:56:45;;;;;;;13.32;12.25;;;24.40;99.90;;;;;;4982563;28;20026;-84
2022/09/18 06:59:13;;;;;;;13.27;12.15;;;24.50;99.90;;;;;;4979788;28;20111;-84
2022/09/18 07:01:40;;;;;;;21.38;12.73;;;23.60;99.90;;;;;;4966020;28;20034;-84
2022/09/18 07:04:25;;;;;;;13.43;12.52;;;23.40;99.90;;;;;;4979282;28;20038;-85
2022/09/18 07:06:52;;;;;;;13.55;12.57;;;23.70;99.90;;;;;;4980177;28;20035;-90
2022/09/18 07:09:19;;;;;;;14.07;12.70;;;24.20;99.90;;;;;;4977661;28;20369;-91
2022/09/18 07:12:36;;;;;;;;;;;;;;;;;;;;;
2022/09/18 07:21:08;;;;;;;14.75;13.27;;;24.00;99.90;;;;;;5028859;23;20698;-94
2022/09/18 07:23:39;;;;;;;14.38;13.23;;;23.90;99.90;;;;;;4970304;28;20026;-93
2022/09/18 07:26:06;;;;;;;13.18;12.40;;;23.00;99.90;;;;;;4986096;28;20043;-93
2022/09/18 07:28:34;;;;;;;13.93;12.73;;;22.60;99.90;;;;;;4953333;28;20031;-93
2022/09/18 07:31:14;;;;;;;13.50;12.38;;;22.30;99.90;;;;;;4955771;28;20042;-94
2022/09/18 07:33:43;;;;;;;14.50;12.90;;;22.30;99.90;;;;;;4970238;28;20027;-93
2022/09/18 07:36:23;;;;;;;14.00;12.75;;;22.30;99.90;;;;;;4968889;28;20023;-95
2022/09/18 07:41:57;;;;;;;13.77;12.95;;;22.40;99.90;;;;;;5856918;23;20068;-93
2022/09/18 07:44:25;;;;;;;14.38;13.02;;;22.80;99.90;;;;;;4979694;28;20022;-93
2022/09/18 07:46:54;;;;;;;14.65;13.45;;;23.30;99.90;;;;;;4963219;28;20081;-92
2022/09/18 07:49:57;;;;;;;15.05;13.90;;;23.50;99.90;;;;;;4947239;28;20099;-94
2022/09/18 07:52:28;;;;;;;15.35;14.10;;;23.00;99.90;;;;;;4919002;29;20065;-93
2022/09/18 07:54:59;;;;;;;14.77;13.60;;;22.80;99.90;;;;;;4949495;29;20036;-95
2022/09/18 07:57:33;;;;;;;15.50;14.40;;;23.30;99.90;;;;;;4923550;29;20035;-94
2022/09/18 08:00:29;;;;;;;14.73;13.68;;;23.50;99.90;;;;;;4925947;29;20055;-93
2022/09/18 08:03:08;;;;;;;14.93;13.90;;;23.20;99.90;;;;;;4921357;29;20051;-94
2022/09/18 08:06:13;;;;;;;14.93;13.63;;;22.80;99.90;;;;;;4898702;29;20551;-94
2022/09/18 16:51:16;;;;;;;12.52;11.93;;;19.90;99.90;;;;;;5419216;23;20489;-92
2022/09/18 16:53:43;;;;;;;13.05;12.25;;;19.90;99.90;;;;;;4977419;28;20037;-91
2022/09/18 16:56:16;;;;;;;12.88;12.18;;;19.80;99.90;;;;;;4964168;28;20086;-93
2022/09/18 16:58:44;;;;;;;13.40;12.40;;;19.80;99.90;;;;;;4971961;28;20043;-92
2022/09/18 17:01:10;;;;;;;13.60;12.73;;;19.80;99.90;;;;;;4970892;28;20037;-93
2022/09/18 17:03:37;;;;;;;13.48;12.48;;;19.70;99.90;;;;;;4985631;28;20036;-90
2022/09/18 17:06:03;;;;;;;12.90;12.13;;;19.70;99.90;;;;;;4968601;28;20037;-91
2022/09/18 17:08:30;;;;;;;13.65;12.45;;;19.70;99.90;;;;;;4967306;28;20031;-90
2022/09/18 17:10:56;;;;;;;12.95;12.15;;;19.60;99.90;;;;;;4966050;28;20038;-91
2022/09/18 17:13:23;;;;;;;12.98;12.18;;;19.50;99.90;;;;;;4982214;28;20030;-90
2022/09/18 17:15:50;;;;;;;13.73;12.75;;;19.50;99.90;;;;;;4967705;28;20026;-91
2022/09/18 17:18:16;;;;;;;12.57;11.88;;;19.50;99.90;;;;;;4982612;28;20040;-91
2022/09/18 17:20:44;;;;;;;12.65;11.70;;;19.50;99.90;;;;;;4967787;28;20499;-91
2022/09/18 17:23:11;;;;;;;12.05;11.30;;;19.40;99.90;;;;;;4971444;28;20035;-92
2022/09/18 17:25:37;;;;;;;12.77;12.00;;;19.40;99.90;;;;;;4970066;28;20508;-91
2022/09/18 17:28:09;;;;;;;11.95;11.23;;;19.30;99.90;;;;;;4970738;28;20026;-93
2022/09/18 17:30:40;;;;;;;13.15;12.15;;;19.30;99.90;;;;;;4987090;28;20121;-91
2022/09/18 17:33:08;;;;;;;12.55;11.75;;;19.30;99.90;;;;;;4984904;28;20030;-92
2022/09/18 17:35:35;;;;;;;17.75;11.95;;;19.30;99.90;;;;;;4970392;28;20114;-91
2022/09/18 17:38:03;;;;;;;12.80;11.73;;;19.30;99.90;;;;;;4985249;28;20027;-92
2022/09/18 17:40:29;;;;;;;12.68;11.80;;;19.20;99.90;;;;;;4972210;28;20073;-91
2022/09/18 17:42:56;;;;;;;12.30;11.70;;;19.20;99.90;;;;;;4988586;28;20499;-92
2022/09/18 17:45:22;;;;;;;12.32;11.63;;;19.10;99.90;;;;;;4964808;28;20022;-91
2022/09/18 17:47:51;;;;;;;11.52;10.93;;;19.10;99.90;;;;;;4972325;28;20054;-92
2022/09/18 17:50:19;;;;;;;12.20;11.60;;;19.00;99.90;;;;;;4968686;28;20572;-92
2022/09/18 17:52:45;;;;;;;11.90;11.20;;;19.00;99.90;;;;;;4954990;28;20120;-91
2022/09/18 17:55:12;;;;;;;11.73;11.02;;;18.90;99.90;;;;;;4954516;28;20035;-91
2022/09/18 17:57:39;;;;;;;12.40;11.60;;;18.90;99.90;;;;;;4952756;28;20394;-91
2022/09/18 18:00:06;;;;;;;12.30;11.40;;;18.90;99.90;;;;;;4953256;28;20019;-90
2022/09/18 18:02:38;;;;;;;12.43;11.73;;;18.90;99.90;;;;;;4970359;28;20134;-91
2022/09/18 18:05:05;;;;;;;12.63;11.77;;;18.90;99.90;;;;;;4953832;28;20098;-93
2022/09/18 18:07:31;;;;;;;12.07;11.48;;;18.90;99.90;;;;;;4954579;28;20038;-93
2022/09/18 18:09:58;;;;;;;12.52;11.77;;;18.90;99.90;;;;;;4953763;28;20023;-92
2022/09/18 18:12:24;;;;;;;11.90;11.20;;;18.90;99.90;;;;;;4954236;28;20078;-92
2022/09/18 18:14:55;;;;;;;11.60;11.00;;;18.90;99.90;;;;;;4953686;28;20054;-93
2022/09/18 18:17:33;;;;;;;12.15;11.13;;;18.90;99.90;;;;;;4958240;28;20031;-91
2022/09/18 18:20:02;;;;;;;12.43;11.40;;;18.80;99.90;;;;;;4971121;28;20026;-89
2022/09/18 18:22:30;;;;;;;11.68;10.98;;;18.70;99.90;;;;;;4969164;28;20031;-92
2022/09/18 18:24:58;;;;;;;11.77;10.98;;;18.70;99.90;;;;;;4952949;28;20031;-91
2022/09/18 18:27:24;;;;;;;12.30;11.40;;;18.70;99.90;;;;;;4954584;28;20034;-92
2022/09/18 18:29:51;;;;;;;11.90;11.10;;;18.70;99.90;;;;;;4954153;28;20037;-91
2022/09/18 18:32:18;;;;;;;11.77;10.82;;;18.70;99.90;;;;;;4953675;28;20540;-92
2022/09/18 18:34:46;;;;;;;12.15;11.50;;;18.70;99.90;;;;;;4954470;28;20026;-90
2022/09/18 18:37:13;;;;;;;12.45;11.38;;;18.70;99.90;;;;;;4954807;28;20061;-91
2022/09/18 18:39:40;;;;;;;12.52;11.63;;;18.60;99.90;;;;;;4956633;28;20023;-93
2022/09/18 18:42:06;;;;;;;12.57;11.77;;;18.60;99.90;;;;;;4955209;28;20061;-91
2022/09/18 18:44:33;;;;;;;12.27;11.20;;;18.50;99.90;;;;;;4971581;28;20034;-91
2022/09/18 18:47:00;;;;;;;12.13;11.30;;;18.40;99.90;;;;;;4952703;28;20030;-92
2022/09/18 18:49:27;;;;;;;11.98;11.18;;;18.30;99.90;;;;;;4950738;28;20444;-91
2022/09/18 18:51:53;;;;;;;11.95;11.05;;;18.30;99.90;;;;;;4943853;28;20078;-92
2022/09/18 18:54:21;;;;;;;11.13;10.40;;;18.30;99.90;;;;;;4960443;28;20035;-91
2022/09/18 18:56:49;;;;;;;12.07;11.20;;;18.30;99.90;;;;;;4944335;28;20061;-90
2022/09/18 18:59:17;;;;;;;15.20;13.77;;;18.30;99.90;;;;;;4961348;23;20086;-92
2022/09/18 19:01:43;;;;;;;11.35;10.75;;;18.30;99.90;;;;;;4963042;28;20033;-92
2022/09/18 19:04:16;;;;;;;11.70;10.90;;;18.30;99.90;;;;;;4944933;28;20023;-93
2022/09/18 19:06:55;;;;;;;11.70;10.82;;;18.30;99.90;;;;;;4962479;28;20030;-92
2022/09/18 19:09:24;;;;;;;11.50;10.77;;;18.20;99.90;;;;;;4960250;28;20031;-92
2022/09/18 19:15:10;;;;;;;11.68;10.98;;;18.20;99.90;;;;;;4957507;28;20045;-92
2022/09/18 19:17:39;;;;;;;11.65;10.88;;;18.20;99.90;;;;;;4961744;28;20070;-92
2022/09/18 19:20:06;;;;;;;11.20;10.45;;;18.10;99.90;;;;;;4964341;28;20101;-89
2022/09/18 19:22:39;;;;;;;11.60;10.90;;;18.10;99.90;;;;;;4962517;28;20063;-92
2022/09/18 19:25:05;;;;;;;12.00;11.30;;;18.10;99.90;;;;;;4964663;28;20443;-92
2022/09/18 19:27:32;;;;;;;11.82;11.02;;;18.10;99.90;;;;;;4960538;28;20400;-92
2022/09/18 19:29:59;;;;;;;11.43;10.82;;;18.00;99.90;;;;;;4959938;28;20037;-91
2022/09/18 19:32:25;;;;;;;11.50;10.73;;;18.00;99.90;;;;;;4959750;28;20031;-92
2022/09/18 19:34:51;;;;;;;11.45;10.65;;;18.00;99.90;;;;;;4959936;28;20047;-92
2022/09/18 19:37:18;;;;;;;10.85;10.15;;;18.00;99.90;;;;;;4959373;28;20085;-92
2022/09/18 19:39:52;;;;;;;11.27;10.50;;;18.00;99.90;;;;;;4960906;28;20369;-93
2022/09/18 19:42:19;;;;;;;10.98;10.27;;;18.00;99.90;;;;;;4959790;28;20127;-91
2022/09/18 19:44:54;;;;;;;11.65;10.50;;;18.00;99.90;;;;;;4959726;28;20069;-92
2022/09/18 19:47:26;;;;;;;11.00;10.10;;;17.90;99.90;;;;;;4961090;28;20496;-91
2022/09/18 19:49:57;;;;;;;10.77;10.15;;;17.90;99.90;;;;;;4959311;28;20031;-91
2022/09/18 19:52:27;;;;;;;10.63;9.90;;;17.90;99.90;;;;;;4959427;28;20054;-92
2022/09/18 19:54:55;;;;;;;11.70;10.65;;;17.80;99.90;;;;;;4959072;28;20069;-92
2022/09/18 19:57:24;;;;;;;11.15;10.45;;;17.80;99.90;;;;;;4959126;28;20074;-92
2022/09/18 19:59:55;;;;;;;10.80;10.00;;;17.70;99.90;;;;;;4960360;28;20047;-92
2022/09/18 20:02:24;;;;;;;10.63;9.90;;;17.60;99.90;;;;;;4963364;28;20042;-89
2022/09/18 20:04:51;;;;;;;11.10;10.05;;;17.60;99.90;;;;;;4978722;28;20022;-93
2022/09/18 20:07:17;;;;;;;10.50;9.73;;;17.60;99.90;;;;;;4978501;28;20038;-92
2022/09/18 20:09:44;;;;;;;10.63;9.70;;;17.60;99.90;;;;;;4978652;28;20023;-91
2022/09/18 20:12:11;;;;;;;10.50;9.80;;;17.60;99.90;;;;;;4978733;28;20382;-93
2022/09/18 20:14:38;;;;;;;10.15;9.65;;;17.50;99.90;;;;;;4978437;28;20034;-92
2022/09/18 20:17:04;;;;;;;10.15;9.55;;;17.40;99.90;;;;;;4978879;28;20023;-91
2022/09/18 20:19:31;;;;;;;9.73;9.32;;;17.40;99.90;;;;;;4978637;28;20033;-93
2022/09/18 20:22:01;;;;;;;10.25;9.55;;;17.30;99.90;;;;;;4978750;28;20046;-92
2022/09/18 20:24:32;;;;;;;10.30;9.80;;;17.30;99.90;;;;;;4979803;28;20034;-92
2022/09/18 20:26:59;;;;;;;9.98;9.38;;;17.30;99.90;;;;;;4980034;28;20364;-92
2022/09/18 20:29:27;;;;;;;10.50;9.65;;;17.40;99.90;;;;;;4980472;28;20030;-91
2022/09/18 20:31:54;;;;;;;10.68;9.88;;;17.40;99.90;;;;;;4991155;28;20033;-93
2022/09/18 20:34:23;;;;;;;10.40;9.70;;;17.50;99.90;;;;;;4985628;28;20050;-91
2022/09/18 20:36:51;;;;;;;10.90;10.20;;;17.50;99.90;;;;;;4982542;28;20034;-92
2022/09/18 20:39:20;;;;;;;10.27;9.60;;;17.50;99.90;;;;;;4995496;28;20027;-93
2022/09/18 20:41:47;;;;;;;10.50;9.73;;;17.50;99.90;;;;;;4989540;28;20038;-93
2022/09/18 20:44:14;;;;;;;10.75;9.82;;;17.50;99.90;;;;;;4992864;28;20026;-94
2022/09/18 20:46:41;;;;;;;9.98;9.50;;;17.50;99.90;;;;;;4980913;28;20037;-91
2022/09/18 20:49:09;;;;;;;9.40;8.90;;;17.50;99.90;;;;;;4982300;28;20038;-94
2022/09/18 20:51:36;;;;;;;10.18;9.55;;;17.50;99.90;;;;;;4983786;28;20023;-94
2022/09/18 20:54:06;;;;;;;10.60;9.90;;;17.50;99.90;;;;;;4963745;28;20033;-95
2022/09/18 20:56:40;;;;;;;10.32;9.82;;;17.50;99.90;;;;;;4978564;28;20042;-94
2022/09/18 20:59:07;;;;;;;10.55;9.85;;;17.40;99.90;;;;;;4978074;28;20042;-94
2022/09/18 21:01:36;;;;;;;9.98;9.32;;;17.40;99.90;;;;;;4977900;28;20045;-94
2022/09/18 21:04:03;;;;;;;10.20;9.40;;;17.40;99.90;;;;;;4977924;28;20035;-94
2022/09/18 21:06:32;;;;;;;10.35;9.68;;;17.50;99.90;;;;;;4977895;28;20040;-94
2022/09/18 21:09:04;;;;;;;10.55;9.65;;;17.50;99.90;;;;;;4980163;28;20090;-95
2022/09/18 21:11:34;;;;;;;9.70;9.30;;;17.50;99.90;;;;;;4978158;28;20038;-95
2022/09/18 21:14:02;;;;;;;10.27;9.68;;;17.50;99.90;;;;;;4961868;28;20094;-92
2022/09/18 21:16:32;;;;;;;10.35;9.73;;;17.50;99.90;;;;;;4980738;28;20502;-94
2022/09/18 21:19:00;;;;;;;10.80;10.10;;;17.50;99.90;;;;;;4981368;28;20034;-94
2022/09/18 21:21:30;;;;;;;10.50;9.73;;;17.40;99.90;;;;;;4981310;28;20096;-94
2022/09/18 21:24:00;;;;;;;10.05;9.45;;;17.40;99.90;;;;;;4981406;28;20026;-93
2022/09/18 21:26:32;;;;;;;10.63;9.65;;;17.30;99.90;;;;;;4965049;28;20030;-94
2022/09/18 21:29:28;;;;;;;10.13;9.50;;;17.30;99.90;;;;;;4982746;28;20030;-95
2022/09/18 21:31:58;;;;;;;9.50;9.00;;;17.30;99.90;;;;;;4967079;28;20031;-93
2022/09/18 21:37:33;;;;;;;9.32;8.82;;;17.30;99.90;;;;;;5051178;23;20073;-94
2022/09/18 21:40:01;;;;;;;9.88;9.38;;;17.30;99.90;;;;;;4966410;28;20057;-94
2022/09/18 21:42:28;;;;;;;9.65;9.00;;;17.30;99.90;;;;;;4965216;28;20030;-94
2022/09/18 21:44:54;;;;;;;10.32;9.45;;;17.30;99.90;;;;;;4965015;28;20038;-93
2022/09/18 21:47:21;;;;;;;10.00;9.10;;;17.30;99.90;;;;;;4965263;28;20054;-94
2022/09/18 21:49:48;;;;;;;9.90;9.10;;;17.20;99.90;;;;;;4965390;28;20030;-94
2022/09/18 21:52:15;;;;;;;9.50;8.80;;;17.20;99.90;;;;;;4964806;28;20026;-92
2022/09/18 21:54:42;;;;;;;9.57;8.95;;;17.20;99.90;;;;;;4964754;28;20101;-93
2022/09/18 21:57:08;;;;;;;9.30;8.80;;;17.20;99.90;;;;;;4964490;28;20030;-93
2022/09/18 21:59:35;;;;;;;9.90;9.00;;;17.10;99.90;;;;;;4964798;28;20034;-93
2022/09/18 22:02:03;;;;;;;9.32;8.63;;;17.10;99.90;;;;;;4964373;28;20038;-94
2022/09/18 22:04:31;;;;;;;9.05;8.55;;;17.10;99.90;;;;;;4964397;28;20034;-94
2022/09/18 22:07:00;;;;;;;9.02;8.30;;;17.00;99.90;;;;;;4964460;28;20038;-94
2022/09/18 22:09:33;;;;;;;8.90;8.27;;;17.10;99.90;;;;;;4964531;28;20030;-94
2022/09/18 22:12:00;;;;;;;9.00;8.60;;;17.00;99.90;;;;;;4964517;28;20514;-94
2022/09/18 22:14:31;;;;;;;8.80;8.30;;;17.00;99.90;;;;;;4964378;28;20117;-95
2022/09/18 22:17:00;;;;;;;9.75;8.80;;;17.00;99.90;;;;;;4964259;28;20026;-94
2022/09/18 22:19:26;;;;;;;8.73;8.32;;;17.00;99.90;;;;;;4964155;28;20027;-94
2022/09/18 22:21:53;;;;;;;8.70;8.20;;;17.00;99.90;;;;;;4964168;28;20392;-94
2022/09/18 22:24:22;;;;;;;9.40;8.70;;;17.10;99.90;;;;;;4966464;28;20023;-92
2022/09/18 22:26:53;;;;;;;9.20;8.60;;;17.10;99.90;;;;;;4963485;28;20038;-94
2022/09/18 22:29:33;;;;;;;10.20;8.80;;;17.20;99.90;;;;;;4963995;28;20121;-94
2022/09/18 22:32:01;;;;;;;8.85;8.35;;;17.20;99.90;;;;;;4963999;28;20058;-94
2022/09/18 22:34:29;;;;;;;9.10;8.43;;;17.20;99.90;;;;;;4964170;28;20026;-93
2022/09/18 22:36:58;;;;;;;8.98;8.38;;;17.20;99.90;;;;;;4963763;28;20050;-93
2022/09/18 22:39:27;;;;;;;9.05;8.60;;;17.20;99.90;;;;;;4980048;28;20043;-93
2022/09/18 22:41:54;;;;;;;9.07;8.40;;;17.20;99.90;;;;;;4963767;28;20034;-94
2022/09/18 22:44:21;;;;;;;9.13;8.40;;;17.20;99.90;;;;;;4963826;28;20113;-95
2022/09/18 22:46:51;;;;;;;9.27;8.60;;;17.10;99.90;;;;;;4964542;28;20101;-93
2022/09/18 22:49:19;;;;;;;9.27;8.68;;;17.10;99.90;;;;;;4963581;28;20054;-93
2022/09/18 22:51:46;;;;;;;9.02;8.60;;;17.00;99.90;;;;;;4963642;28;20061;-93
2022/09/18 22:54:14;;;;;;;9.30;8.80;;;17.00;99.90;;;;;;4963713;28;20027;-94
2022/09/18 22:56:45;;;;;;;9.07;8.38;;;17.00;99.90;;;;;;4963389;28;20034;-93
2022/09/18 22:59:14;;;;;;;9.15;8.52;;;16.90;99.90;;;;;;4963532;28;20076;-93
2022/09/18 23:01:51;;;;;;;9.18;8.60;;;16.80;99.90;;;;;;4963301;28;20125;-93
2022/09/18 23:04:22;;;;;;;8.68;8.27;;;16.70;99.90;;;;;;4963468;28;20037;-95
2022/09/18 23:06:50;;;;;;;8.73;8.23;;;16.60;99.90;;;;;;4963318;28;20038;-94
2022/09/18 23:09:18;;;;;;;8.50;8.00;;;16.50;99.90;;;;;;4965246;28;20084;-94
2022/09/18 23:11:46;;;;;;;8.60;8.10;;;16.50;99.90;;;;;;4963378;28;20484;-94
2022/09/18 23:14:17;;;;;;;8.50;7.85;;;16.40;99.90;;;;;;4963314;28;20023;-94
2022/09/18 23:16:44;;;;;;;8.75;8.02;;;16.30;99.90;;;;;;4964255;28;20400;-93
2022/09/18 23:19:22;;;;;;;9.27;7.88;;;16.20;99.90;;;;;;4968748;28;20019;-94
2022/09/18 23:22:12;;;;;;;8.70;8.20;;;16.20;99.90;;;;;;4972447;28;20122;-95
2022/09/18 23:24:57;;;;;;;7.97;7.28;;;16.10;99.90;;;;;;4972393;28;20411;-94
2022/09/18 23:27:25;;;;;;;7.13;6.70;;;16.00;99.90;;;;;;4971559;28;20042;-93
2022/09/18 23:30:05;;;;;;;7.60;7.00;;;16.00;99.90;;;;;;4969711;28;20058;-94
2022/09/18 23:32:41;;;;;;;7.70;7.10;;;15.80;99.90;;;;;;4972426;28;20034;-94
2022/09/18 23:35:11;;;;;;;7.32;6.97;;;15.80;99.90;;;;;;4971645;28;20494;-94
2022/09/18 23:37:42;;;;;;;7.90;7.18;;;15.80;99.90;;;;;;4950629;28;20209;-94
2022/09/18 23:40:18;;;;;;;7.90;7.30;;;15.70;99.90;;;;;;4933071;29;20039;-94
2022/09/18 23:42:56;;;;;;;7.25;6.90;;;15.70;99.90;;;;;;4929550;29;20048;-94
2022/09/18 23:45:51;;;;;;;8.13;7.50;;;15.70;99.90;;;;;;4934055;29;20039;-94
2022/09/18 23:48:39;;;;;;;7.57;7.15;;;15.70;99.90;;;;;;4873585;29;20041;-94
2022/09/18 23:51:15;;;;;;;7.72;7.13;;;15.70;99.90;;;;;;4873005;29;20037;-94
2022/09/18 23:53:48;;;;;;;7.32;6.82;;;15.80;99.90;;;;;;4850001;29;20064;-95
2022/09/18 23:56:16;;;;;;;7.55;6.82;;;15.70;99.90;;;;;;4849712;29;20034;-94
2022/09/18 23:58:43;;;;;;;7.93;7.32;;;15.70;99.90;;;;;;4867483;29;20467;-94
